Map

Track Data

SID SEASON NUMBER BASIN SUBBASIN NAME ISO_TIME NATURE LAT LON WMO_WIND WMO_PRES WMO_AGENCY TRACK_TYPE DIST2LAND LANDFALL IFLAG USA_AGENCY USA_ATCF_ID USA_LAT USA_LON USA_RECORD USA_STATUS USA_WIND USA_PRES USA_SSHS USA_R34_NE USA_R34_SE USA_R34_SW USA_R34_NW USA_R50_NE USA_R50_SE USA_R50_SW USA_R50_NW USA_R64_NE USA_R64_SE USA_R64_SW USA_R64_NW USA_POCI USA_ROCI USA_RMW USA_EYE TOKYO_LAT TOKYO_LON TOKYO_GRADE TOKYO_WIND TOKYO_PRES TOKYO_R50_DIR TOKYO_R50_LONG TOKYO_R50_SHORT TOKYO_R30_DIR TOKYO_R30_LONG TOKYO_R30_SHORT TOKYO_LAND CMA_LAT CMA_LON CMA_CAT CMA_WIND CMA_PRES HKO_LAT HKO_LON HKO_CAT HKO_WIND HKO_PRES NEWDELHI_LAT NEWDELHI_LON NEWDELHI_GRADE NEWDELHI_WIND NEWDELHI_PRES NEWDELHI_CI NEWDELHI_DP NEWDELHI_POCI REUNION_LAT REUNION_LON REUNION_TYPE REUNION_WIND REUNION_PRES REUNION_TNUM REUNION_CI REUNION_RMW REUNION_R34_NE REUNION_R34_SE REUNION_R34_SW REUNION_R34_NW REUNION_R50_NE REUNION_R50_SE REUNION_R50_SW REUNION_R50_NW REUNION_R64_NE REUNION_R64_SE REUNION_R64_SW REUNION_R64_NW BOM_LAT BOM_LON BOM_TYPE BOM_WIND BOM_PRES BOM_TNUM BOM_CI BOM_RMW BOM_R34_NE BOM_R34_SE BOM_R34_SW BOM_R34_NW BOM_R50_NE BOM_R50_SE BOM_R50_SW BOM_R50_NW BOM_R64_NE BOM_R64_SE BOM_R64_SW BOM_R64_NW BOM_ROCI BOM_POCI BOM_EYE BOM_POS_METHOD BOM_PRES_METHOD NADI_LAT NADI_LON NADI_CAT NADI_WIND NADI_PRES WELLINGTON_LAT WELLINGTON_LON WELLINGTON_WIND WELLINGTON_PRES DS824_LAT DS824_LON DS824_STAGE DS824_WIND DS824_PRES TD9636_LAT TD9636_LON TD9636_STAGE TD9636_WIND TD9636_PRES TD9635_LAT TD9635_LON TD9635_WIND TD9635_PRES TD9635_ROCI NEUMANN_LAT NEUMANN_LON NEUMANN_CLASS NEUMANN_WIND NEUMANN_PRES MLC_LAT MLC_LON MLC_CLASS MLC_WIND MLC_PRES USA_GUST BOM_GUST BOM_GUST_PER REUNION_GUST REUNION_GUST_PER USA_SEAHGT USA_SEARAD_NE USA_SEARAD_SE USA_SEARAD_SW USA_SEARAD_NW STORM_SPEED STORM_DIR
1955006S16201 1955 3 SP MM NOT_NAMED 1955-01-05 12:00:00 TS -16.2000 -159.000 main 1443 1443 O________OO___ jtwc_sh SH071955 -16.2000 -159.000 -1 -16.2000 201.000 TC -16.2000 -159.000 2 7 124
1955006S16201 1955 3 SP MM NOT_NAMED 1955-01-05 15:00:00 TS -16.3987 -158.692 main 1478 1478 P________PP___ SH071955 -16.4001 -158.675 -1 -16.4001 -158.675 TC -16.3957 -158.727 2 7 126
1955006S16201 1955 3 SP MM NOT_NAMED 1955-01-05 18:00:00 TS -16.5977 -158.424 main 1513 1513 O________OP___ jtwc_sh SH071955 -16.6000 -158.400 -1 -16.6000 201.600 TC -16.5930 -158.473 2 6 132
1955006S16201 1955 3 SP MM NOT_NAMED 1955-01-05 21:00:00 TS -16.7979 -158.228 main 1538 1538 P________PP___ SH071955 -16.7999 -158.212 -1 -16.7999 -158.212 TC -16.7937 -158.258 2 5 142
1955006S16201 1955 3 SP MM NOT_NAMED 1955-01-06 00:00:00 TS -17.0000 -158.100 main 1553 1553 O________OO___ jtwc_sh SH071955 -17.0000 -158.100 -1 -17.0000 201.900 TC -17.0000 -158.100 2 5 155
1955006S16201 1955 3 SP MM NOT_NAMED 1955-01-06 03:00:00 TS -17.2040 -158.027 main 1568 1568 P________PP___ SH071955 -17.2000 -158.035 -1 -17.2000 -158.035 TC -17.2120 -158.012 2 4 166
1955006S16201 1955 3 SP MM NOT_NAMED 1955-01-06 06:00:00 TS -17.4074 -157.990 main 1573 1573 O________OP___ jtwc_sh SH071955 -17.4000 -158.000 -1 -17.4000 202.000 TC -17.4223 -157.970 2 4 171
1955006S16201 1955 3 SP MM NOT_NAMED 1955-01-06 09:00:00 TS -17.6121 -157.958 main 1578 1578 P________PP___ SH071955 -17.6075 -157.965 -1 -17.6075 -157.965 TC -17.6214 -157.943 2 4 168
1955006S16201 1955 3 SP MM NOT_NAMED 1955-01-06 12:00:00 TS -17.8000 -157.900 main 1594 1594 O________OO___ jtwc_sh SH071955 -17.8000 -157.900 -1 -17.8000 202.100 TC -17.8000 -157.900 2 4 151
1955006S16201 1955 3 SP MM NOT_NAMED 1955-01-06 15:00:00 TS -17.9521 -157.762 main 1609 1609 P________PP___ SH071955 -17.9650 -157.758 -1 -17.9650 -157.758 TC -17.9263 -157.772 2 4 135
1955006S16201 1955 3 SP MM NOT_NAMED 1955-01-06 18:00:00 TS -18.0784 -157.609 main 1633 1633 O________OP___ jtwc_sh SH071955 -18.1000 -157.600 -1 -18.1000 202.400 TC -18.0351 -157.628 2 3 130
1955006S16201 1955 3 SP MM NOT_NAMED 1955-01-06 21:00:00 TS -18.1738 -157.483 main 1646 1646 P________PP___ SH071955 -18.1850 -157.477 -1 -18.1850 -157.477 TC -18.1513 -157.494 2 3 138
1955006S16201 1955 3 SP MM NOT_NAMED 1955-01-07 00:00:00 TS -18.3000 -157.400 main 1659 1659 O________OO___ jtwc_sh SH071955 -18.3000 -157.400 -1 -18.3000 202.600 TC -18.3000 -157.400 2 4 165
1955006S16201 1955 3 SP MM NOT_NAMED 1955-01-07 03:00:00 TS -18.5298 -157.380 main 1665 1665 P________PP___ SH071955 -18.5275 -157.378 -1 -18.5275 -157.378 TC -18.5343 -157.386 2 5 182
1955006S16201 1955 3 SP MM NOT_NAMED 1955-01-07 06:00:00 TS -18.8000 -157.404 main 1675 1675 O________OP___ jtwc_sh SH071955 -18.8000 -157.400 -1 -18.8000 202.600 TC -18.8000 -157.412 2 5 188
1955006S16201 1955 3 SP MM NOT_NAMED 1955-01-07 09:00:00 TS -19.0702 -157.452 main 1675 1675 P________PP___ SH071955 -19.0725 -157.450 -1 -19.0725 -157.450 TC -19.0656 -157.458 2 5 190
1955006S16201 1955 3 SP MM NOT_NAMED 1955-01-07 12:00:00 TS -19.3000 -157.500 main 1682 1682 O________OO___ jtwc_sh SH071955 -19.3000 -157.500 -1 -19.3000 202.500 TC -19.3000 -157.500 2 4 188
1955006S16201 1955 3 SP MM NOT_NAMED 1955-01-07 15:00:00 TS -19.4290 -157.506 main 1686 1686 P________PP___ SH071955 -19.4150 -157.508 -1 -19.4150 -157.508 TC -19.4569 -157.503 2 2 184
1955006S16201 1955 3 SP MM NOT_NAMED 1955-01-07 18:00:00 TS -19.5267 -157.500 main 1690 1690 O________OP___ jtwc_sh SH071955 -19.5000 -157.500 -1 -19.5000 202.500 TC -19.5800 -157.500 2 2 0
1955006S16201 1955 3 SP MM NOT_NAMED 1955-01-07 21:00:00 TS -19.6577 -157.499 main 1698 1698 P________PP___ SH071955 -19.6425 -157.500 -1 -19.6425 -157.500 TC -19.6881 -157.497 2 3 176
1955006S16201 1955 3 SP MM NOT_NAMED 1955-01-08 00:00:00 TS -19.8000 -157.500 main 1701 1701 O________OO___ jtwc_sh SH071955 -19.8000 -157.500 -1 -19.8000 202.500 TC -19.8000 -157.500 2 3 176
1955006S16201 1955 3 SP MM NOT_NAMED 1955-01-08 03:00:00 TS -19.9476 -157.497 main 1706 1706 P________PP___ SH071955 -19.9500 -157.493 -1 -19.9500 -157.493 TC -19.9428 -157.506 2 3 185
1955006S16201 1955 3 SP MM NOT_NAMED 1955-01-08 06:00:00 TS -20.0975 -157.507 main 1714 1714 O________OP___ jtwc_sh SH071955 -20.1000 -157.500 -1 -20.1000 202.500 TC -20.0925 -157.520 2 3 188
1955006S16201 1955 3 SP MM NOT_NAMED 1955-01-08 09:00:00 TS -20.2486 -157.540 main 1718 1713 P________PP___ SH071955 -20.2500 -157.535 -1 -20.2500 -157.535 TC -20.2459 -157.549 2 3 196
1955006S16201 1955 3 SP MM NOT_NAMED 1955-01-08 12:00:00 TS -20.4000 -157.600 main 1717 1712 O________OO___ jtwc_sh SH071955 -20.4000 -157.600 -1 -20.4000 202.400 TC -20.4000 -157.600 2 3 205
1955006S16201 1955 3 SP MM NOT_NAMED 1955-01-08 15:00:00 TS -20.5514 -157.685 main 1716 1711 P________PP___ SH071955 -20.5500 -157.693 -1 -20.5500 -157.693 TC -20.5540 -157.670 2 4 210
1955006S16201 1955 3 SP MM NOT_NAMED 1955-01-08 18:00:00 TS -20.7025 -157.787 main 1711 1707 O________OP___ jtwc_sh SH071955 -20.7000 -157.800 -1 -20.7000 202.200 TC -20.7075 -157.763 2 4 212
1955006S16201 1955 3 SP MM NOT_NAMED 1955-01-08 21:00:00 TS -20.8524 -157.886 main 1711 1702 P________PP___ SH071955 -20.8500 -157.893 -1 -20.8500 -157.893 TC -20.8572 -157.873 2 4 214
1955006S16201 1955 3 SP MM NOT_NAMED 1955-01-09 00:00:00 TS -21.0000 -158.000 main 1707 1703 O________OO___ jtwc_sh SH071955 -21.0000 -158.000 -1 -21.0000 202.000 TC -21.0000 -158.000 2 4 219
1955006S16201 1955 3 SP MM NOT_NAMED 1955-01-09 03:00:00 TS -21.1504 -158.142 main 1707 1694 P________PP___ SH071955 -21.1575 -158.142 -1 -21.1575 -158.142 TC -21.1363 -158.140 2 4 224
1955006S16201 1955 3 SP MM NOT_NAMED 1955-01-09 06:00:00 TS -21.2884 -158.297 main 1694 1685 O________OP___ jtwc_sh SH071955 -21.3000 -158.300 -1 -21.3000 201.700 TC -21.2651 -158.292 2 4 229
1955006S16201 1955 3 SP MM NOT_NAMED 1955-01-09 09:00:00 TS -21.4004 -158.455 main 1681 1677 P________PP___ SH071955 -21.4075 -158.458 -1 -21.4075 -158.458 TC -21.3863 -158.449 2 4 233
1955006S16201 1955 3 SP MM NOT_NAMED 1955-01-09 12:00:00 TS -21.5000 -158.600 main 1677 1668 O________OO___ jtwc_sh SH071955 -21.5000 -158.600 -1 -21.5000 201.400 TC -21.5000 -158.600 2 3 230
1955006S16201 1955 3 SP MM NOT_NAMED 1955-01-09 15:00:00 TS -21.6010 -158.707 main 1674 1665 P________PP___ SH071955 -21.6000 -158.700 -1 -21.6000 -158.700 TC -21.6030 -158.720 2 3 225
1955006S16201 1955 3 SP MM NOT_NAMED 1955-01-09 18:00:00 TS -21.6999 -158.812 main 1670 1661 O________OP___ jtwc_sh SH071955 -21.7000 -158.800 -1 -21.7000 201.200 TC -21.6998 -158.835 2 3 228
1955006S16201 1955 3 SP MM NOT_NAMED 1955-01-09 21:00:00 TS -21.7989 -158.943 main 1667 1655 P________PP___ SH071955 -21.8000 -158.935 -1 -21.8000 -158.935 TC -21.7967 -158.958 2 3 233
1955006S16201 1955 3 SP MM NOT_NAMED 1955-01-10 00:00:00 TS -21.9000 -159.100 main 1655 1643 O________OO___ jtwc_sh SH071955 -21.9000 -159.100 -1 -21.9000 200.900 TC -21.9000 -159.100 2 4 238
1955006S16201 1955 3 SP MM NOT_NAMED 1955-01-10 03:00:00 TS -22.0023 -159.293 main 1643 1631 P________PP___ SH071955 -21.9925 -159.293 -1 -21.9925 -159.293 TC -22.0220 -159.295 2 4 240
1955006S16201 1955 3 SP MM NOT_NAMED 1955-01-10 06:00:00 TS -22.1167 -159.502 main 1631 1620 O________OP___ jtwc_sh SH071955 -22.1000 -159.500 -1 -22.1000 200.500 TC -22.1502 -159.507 2 5 237
1955006S16201 1955 3 SP MM NOT_NAMED 1955-01-10 09:00:00 TS -22.2594 -159.715 main 1626 1615 P________PP___ SH071955 -22.2500 -159.715 -1 -22.2500 -159.715 TC -22.2783 -159.716 2 5 232
1955006S16201 1955 3 SP MM NOT_NAMED 1955-01-10 12:00:00 TS -22.4000 -159.900 main 1615 1607 O________OO___ jtwc_sh SH071955 -22.4000 -159.900 -1 -22.4000 200.100 TC -22.4000 -159.900 2 4 228
1955006S16201 1955 3 SP MM NOT_NAMED 1955-01-10 15:00:00 TS -22.5032 -160.013 main 1613 1605 P________PP___ SH071955 -22.5075 -160.015 -1 -22.5075 -160.015 TC -22.4947 -160.009 2 3 223
1955006S16201 1955 3 SP MM NOT_NAMED 1955-01-10 18:00:00 TS -22.5949 -160.098 main 1611 1610 O________OP___ jtwc_sh SH071955 -22.6000 -160.100 -1 -22.6000 199.900 TC -22.5846 -160.093 2 2 219
1955006S16201 1955 3 SP MM NOT_NAMED 1955-01-10 21:00:00 TS -22.6890 -160.179 main 1610 1608 P________PP___ SH071955 -22.6924 -160.178 -1 -22.6924 -160.178 TC -22.6822 -160.181 2 3 222
1955006S16201 1955 3 SP MM NOT_NAMED 1955-01-11 00:00:00 TS -22.8000 -160.300 main 1608 1598 O________OO___ jtwc_sh SH071955 -22.8000 -160.300 -1 -22.8000 199.700 TC -22.8000 -160.300 2 4 231
1955006S16201 1955 3 SP MM NOT_NAMED 1955-01-11 03:00:00 TS -22.9453 -160.525 main 1598 1588 P________PP___ SH071955 -22.9351 -160.535 -1 -22.9351 -160.535 TC -22.9659 -160.505 2 5 234
1955006S16201 1955 3 SP MM NOT_NAMED 1955-01-11 06:00:00 TS -23.1168 -160.781 main 1588 1587 O________OP___ jtwc_sh SH071955 -23.1000 -160.800 -1 -23.1000 199.200 TC -23.1504 -160.742 2 6 230
1955006S16201 1955 3 SP MM NOT_NAMED 1955-01-11 09:00:00 TS -23.3165 -161.009 main 1587 1586 P________PP___ SH071955 -23.3075 -161.022 -1 -23.3075 -161.022 TC -23.3346 -160.983 2 5 225
1955006S16201 1955 3 SP MM NOT_NAMED 1955-01-11 12:00:00 TS -23.5000 -161.200 main 1586 1585 O________OO___ jtwc_sh SH071955 -23.5000 -161.200 -1 -23.5000 198.800 TC -23.5000 -161.200 2 4 224
1955006S16201 1955 3 SP MM NOT_NAMED 1955-01-11 15:00:00 TS -23.6144 -161.320 main 1585 1578 P________PP___ SH071955 -23.6149 -161.308 -1 -23.6149 -161.308 TC -23.6132 -161.346 2 3 225
1955006S16201 1955 3 SP MM NOT_NAMED 1955-01-11 18:00:00 TS -23.7024 -161.422 main 1585 1578 O________OP___ jtwc_sh SH071955 -23.7000 -161.400 -1 -23.7000 198.600 TC -23.7072 -161.466 2 3 230
1955006S16201 1955 3 SP MM NOT_NAMED 1955-01-11 21:00:00 TS -23.7942 -161.549 main 1585 1578 P________PP___ SH071955 -23.7925 -161.535 -1 -23.7925 -161.535 TC -23.7976 -161.577 2 3 232
1955006S16201 1955 3 SP MM NOT_NAMED 1955-01-12 00:00:00 TS -23.9000 -161.700 main 1578 1571 O________OO___ jtwc_sh SH071955 -23.9000 -161.700 -1 -23.9000 198.300 TC -23.9000 -161.700 2 4 232
1955006S16201 1955 3 SP MM NOT_NAMED 1955-01-12 03:00:00 TS -24.0416 -161.890 main 1572 1572 P________PP___ SH071955 -24.0425 -161.900 -1 -24.0425 -161.900 TC -24.0398 -161.869 2 5 230
1955006S16201 1955 3 SP MM NOT_NAMED 1955-01-12 06:00:00 TS -24.1975 -162.083 main 1573 1573 O________OP___ jtwc_sh SH071955 -24.2000 -162.100 -1 -24.2000 197.900 TC -24.1926 -162.050 2 5 226
1955006S16201 1955 3 SP MM NOT_NAMED 1955-01-12 09:00:00 TS -24.3547 -162.249 main 1582 1575 P________PP___ SH071955 -24.3575 -162.258 -1 -24.3575 -162.258 TC -24.3491 -162.231 2 4 223
1955006S16201 1955 3 SP MM NOT_NAMED 1955-01-12 12:00:00 TS -24.5000 -162.400 main 1577 1570 O________OO___ jtwc_sh SH071955 -24.5000 -162.400 -1 -24.5000 197.600 TC -24.5000 -162.400 2 4 227
1955006S16201 1955 3 SP MM NOT_NAMED 1955-01-12 15:00:00 TS -24.6107 -162.553 main 1572 1572 P________PP___ SH071955 -24.6000 -162.558 -1 -24.6000 -162.558 TC -24.6321 -162.544 2 3 231
1955006S16201 1955 3 SP MM NOT_NAMED 1955-01-12 18:00:00 TS -24.7191 -162.691 main 1573 1573 O________OP___ jtwc_sh SH071955 -24.7000 -162.700 -1 -24.7000 197.300 TC -24.7574 -162.673 2 3 223
1955006S16201 1955 3 SP MM NOT_NAMED 1955-01-12 21:00:00 TS -24.8597 -162.802 main 1584 1577 P________PP___ SH071955 -24.8500 -162.808 -1 -24.8500 -162.808 TC -24.8790 -162.790 2 3 214
1955006S16201 1955 3 SP MM NOT_NAMED 1955-01-13 00:00:00 TS -25.0000 -162.900 main 1586 1586 O________OO___ jtwc_sh SH071955 -25.0000 -162.900 -1 -25.0000 197.100 TC -25.0000 -162.900 2 3 216
1955006S16201 1955 3 SP MM NOT_NAMED 1955-01-13 03:00:00 TS -25.1042 -163.002 main 1588 1588 P________PP___ SH071955 -25.1000 -163.000 -1 -25.1000 -163.000 TC -25.1128 -163.007 2 3 222
1955006S16201 1955 3 SP MM NOT_NAMED 1955-01-13 06:00:00 TS -25.2091 -163.103 main 1590 1590 O________OP___ jtwc_sh SH071955 -25.2000 -163.100 -1 -25.2000 196.900 TC -25.2274 -163.108 2 3 217
1955006S16201 1955 3 SP MM NOT_NAMED 1955-01-13 09:00:00 TS -25.3461 -163.201 main 1593 1593 P________PP___ SH071955 -25.3425 -163.200 -1 -25.3425 -163.200 TC -25.3534 -163.204 2 3 211
1955006S16201 1955 3 SP MM NOT_NAMED 1955-01-13 12:00:00 TS -25.5000 -163.300 main 1605 1605 O________OO___ jtwc_sh SH071955 -25.5000 -163.300 -1 -25.5000 196.700 TC -25.5000 -163.300 2 4 210
1955006S16201 1955 3 SP MM NOT_NAMED 1955-01-13 15:00:00 TS -25.6479 -163.399 main 1608 1608 P________PP___ SH071955 -25.6350 -163.400 -1 -25.6350 -163.400 TC -25.6738 -163.398 2 4 209
1955006S16201 1955 3 SP MM NOT_NAMED 1955-01-13 18:00:00 TS -25.8234 -163.499 main 1620 1620 O________OP___ jtwc_sh SH071955 -25.8000 -163.500 -1 -25.8000 196.500 TC -25.8701 -163.497 2 4 205
1955006S16201 1955 3 SP MM NOT_NAMED 1955-01-13 21:00:00 TS -26.0471 -163.599 main 1632 1632 P________PP___ SH071955 -26.0300 -163.600 -1 -26.0300 -163.600 TC -26.0813 -163.598 2 5 201
1955006S16201 1955 3 SP MM NOT_NAMED 1955-01-14 00:00:00 TS -26.3000 -163.700 main 1654 O________OO___ jtwc_sh SH071955 -26.3000 -163.700 -1 -26.3000 196.300 TC -26.3000 -163.700 2 5 200

Digital Typhoon Data and Search

About IBTrACS Database

This database is a web-friendly format of International Best Track Archive for Climate Stewardship (IBTrACS), a global best track data archive curated by NOAA dating back to 1842.

Updated: 2021-12-03